Time;durP1;ratioP1;P1;durP2;ratioP2;P2;SDS_P1;SDS_P2;PMS_P1;PMS_P2;Temp;Humidity;BMP_temperature;BMP_pressure;BME280_temperature;BME280_humidity;BME280_pressure;Samples;Min_cycle;Max_cycle;Signal;HPM_P1;HPM_P2
2023/08/25 00:01:11;;;;;;;;;;;21.00;82.80;;;;;;4985753;28;20088;-85
2023/08/25 00:03:37;;;;;;;;;;;21.00;82.90;;;;;;4993677;28;19918;-85
2023/08/25 00:06:02;;;;;;;;;;;21.00;82.70;;;;;;4986919;28;19914;-85
2023/08/25 00:08:28;;;;;;;;;;;20.90;83.20;;;;;;4995109;28;19971;-85
2023/08/25 00:10:53;;;;;;;;;;;20.80;83.50;;;;;;4995033;28;20379;-86
2023/08/25 00:13:19;;;;;;;;;;;20.80;83.10;;;;;;4985026;28;20212;-85
2023/08/25 00:15:45;;;;;;;;;;;20.80;83.40;;;;;;4992360;28;19914;-86
2023/08/25 00:18:11;;;;;;;;;;;20.80;83.40;;;;;;4988872;28;20327;-85
2023/08/25 00:20:36;;;;;;;;;;;20.80;83.50;;;;;;4991464;28;19921;-85
2023/08/25 00:23:02;;;;;;;;;;;20.90;82.80;;;;;;4993285;28;19910;-85
2023/08/25 00:25:28;;;;;;;;;;;20.90;82.50;;;;;;4978806;28;19918;-85
2023/08/25 00:27:53;;;;;;;;;;;20.90;82.70;;;;;;4994922;28;20008;-85
2023/08/25 00:30:19;;;;;;;;;;;20.90;82.70;;;;;;4995693;28;19972;-85
2023/08/25 00:32:44;;;;;;;;;;;20.80;82.80;;;;;;5000331;28;19910;-85
2023/08/25 00:35:10;;;;;;;;;;;21.00;82.60;;;;;;4995958;28;19916;-86
2023/08/25 00:37:35;;;;;;;;;;;20.90;82.70;;;;;;4995077;28;19914;-85
2023/08/25 00:40:02;;;;;;;;;;;21.00;82.00;;;;;;4992835;28;19913;-86
2023/08/25 00:42:27;;;;;;;;;;;21.00;81.80;;;;;;4991611;28;20018;-85
2023/08/25 00:44:53;;;;;;;;;;;21.00;81.90;;;;;;4992907;28;20000;-86
2023/08/25 00:47:19;;;;;;;;;;;21.10;81.60;;;;;;4990076;28;19910;-86
2023/08/25 00:49:45;;;;;;;;;;;21.10;81.30;;;;;;4994808;28;19936;-85
2023/08/25 00:52:11;;;;;;;;;;;21.10;80.70;;;;;;5000877;28;19913;-86
2023/08/25 00:54:37;;;;;;;;;;;21.10;80.90;;;;;;5009450;28;19960;-86
2023/08/25 00:57:03;;;;;;;;;;;21.10;81.00;;;;;;5003358;28;20280;-85
2023/08/25 00:59:29;;;;;;;;;;;21.00;81.50;;;;;;4998139;28;20001;-85
2023/08/25 01:01:55;;;;;;;;;;;20.90;82.10;;;;;;4995719;28;19913;-86
2023/08/25 01:04:21;;;;;;;;;;;21.00;81.20;;;;;;4996940;28;19914;-85
2023/08/25 01:06:48;;;;;;;;;;;21.00;81.40;;;;;;4994467;28;19914;-85
2023/08/25 01:09:14;;;;;;;;;;;21.10;80.80;;;;;;4994156;28;19921;-85
2023/08/25 01:11:59;;;;;;;;;;;21.00;81.00;;;;;;4993364;28;19914;-85
2023/08/25 01:14:36;;;;;;;;;;;21.00;80.90;;;;;;4993479;28;19913;-85
2023/08/25 01:17:07;;;;;;;;;;;21.10;81.30;;;;;;4991559;28;19913;-86
2023/08/25 01:19:54;;;;;;;;;;;21.10;80.80;;;;;;4991493;28;19920;-85
2023/08/25 01:22:36;;;;;;;;;;;21.10;80.80;;;;;;4992688;28;19909;-86
2023/08/25 01:25:20;;;;;;;;;;;21.10;80.80;;;;;;4987722;28;19925;-86
2023/08/25 01:27:46;;;;;;;;;;;21.10;80.40;;;;;;4980433;28;19918;-85
2023/08/25 01:30:13;;;;;;;;;;;21.10;81.10;;;;;;4987893;28;19917;-86
2023/08/25 01:32:39;;;;;;;;;;;21.00;81.40;;;;;;4980922;28;19972;-85
2023/08/25 01:35:05;;;;;;;;;;;21.10;81.00;;;;;;4991442;28;19913;-85
2023/08/25 01:37:32;;;;;;;;;;;21.10;80.50;;;;;;4993127;28;19910;-86
2023/08/25 01:40:00;;;;;;;;;;;21.10;80.60;;;;;;4991823;28;19909;-85
2023/08/25 01:42:27;;;;;;;;;;;21.20;80.20;;;;;;4991668;28;20319;-84
2023/08/25 01:44:53;;;;;;;;;;;21.10;80.80;;;;;;4984868;28;19965;-85
2023/08/25 01:47:22;;;;;;;;;;;21.00;80.70;;;;;;4990792;28;20324;-85
2023/08/25 01:49:48;;;;;;;;;;;21.00;80.90;;;;;;4991212;28;19967;-85
2023/08/25 01:52:14;;;;;;;;;;;21.10;80.10;;;;;;4984972;28;19945;-84
2023/08/25 01:54:41;;;;;;;;;;;21.10;80.20;;;;;;4985206;28;19910;-85
2023/08/25 01:57:07;;;;;;;;;;;21.10;80.40;;;;;;4983828;28;19953;-85
2023/08/25 01:59:32;;;;;;;;;;;21.20;79.80;;;;;;4988705;28;19956;-85
2023/08/25 02:01:57;;;;;;;;;;;21.10;80.40;;;;;;4983730;28;20042;-85
2023/08/25 02:04:23;;;;;;;;;;;21.00;80.70;;;;;;4991818;28;20401;-85
2023/08/25 02:06:50;;;;;;;;;;;20.90;81.10;;;;;;4994120;28;20256;-85
2023/08/25 02:09:15;;;;;;;;;;;20.90;81.30;;;;;;4986210;28;20506;-85
2023/08/25 02:11:41;;;;;;;;;;;20.90;81.90;;;;;;4992824;28;19921;-85
2023/08/25 02:14:06;;;;;;;;;;;20.80;81.80;;;;;;4989189;28;20483;-85
2023/08/25 02:16:32;;;;;;;;;;;20.70;82.10;;;;;;4986286;28;19949;-84
2023/08/25 02:18:57;;;;;;;;;;;20.90;81.10;;;;;;5011880;28;19937;-84
2023/08/25 02:21:23;;;;;;;;;;;20.90;81.10;;;;;;5009283;28;19917;-85
2023/08/25 02:23:49;;;;;;;;;;;20.90;81.30;;;;;;5004336;28;19916;-85
2023/08/25 02:26:14;;;;;;;;;;;20.80;81.70;;;;;;4624975;23;20017;-86
2023/08/25 02:28:40;;;;;;;;;;;20.70;82.20;;;;;;4992456;28;19926;-86
2023/08/25 02:31:05;;;;;;;;;;;20.60;82.10;;;;;;4989887;28;20372;-86
2023/08/25 02:33:31;;;;;;;;;;;20.50;81.90;;;;;;4997169;28;19964;-86
2023/08/25 02:35:56;;;;;;;;;;;20.50;82.40;;;;;;4984743;28;19960;-86
2023/08/25 02:38:22;;;;;;;;;;;20.50;82.40;;;;;;4992198;28;19914;-86
2023/08/25 02:40:47;;;;;;;;;;;20.50;82.80;;;;;;4996943;28;19976;-86
2023/08/25 02:43:13;;;;;;;;;;;20.60;82.10;;;;;;4995360;28;19922;-86
2023/08/25 02:45:41;;;;;;;;;;;20.50;82.20;;;;;;4997611;28;20453;-86
2023/08/25 02:48:06;;;;;;;;;;;20.40;82.30;;;;;;4991771;28;19917;-86
2023/08/25 02:50:33;;;;;;;;;;;20.30;82.80;;;;;;4990988;28;20025;-87
2023/08/25 02:52:58;;;;;;;;;;;20.20;82.90;;;;;;4992157;28;19918;-86
2023/08/25 02:55:24;;;;;;;;;;;20.10;83.60;;;;;;4997370;28;19910;-86
2023/08/25 02:57:49;;;;;;;;;;;20.00;83.70;;;;;;5009846;28;19921;-86
2023/08/25 03:00:16;;;;;;;;;;;19.90;84.00;;;;;;4999663;28;19910;-86
2023/08/25 03:02:42;;;;;;;;;;;20.00;84.10;;;;;;4999395;28;19917;-86
2023/08/25 03:05:08;;;;;;;;;;;19.80;84.70;;;;;;4997526;28;19913;-86
2023/08/25 03:07:34;;;;;;;;;;;19.80;84.90;;;;;;4996246;28;19949;-86
2023/08/25 03:10:00;;;;;;;;;;;19.80;85.10;;;;;;4990904;28;19996;-86
2023/08/25 03:12:26;;;;;;;;;;;19.80;85.10;;;;;;4997137;28;20019;-86
2023/08/25 03:14:52;;;;;;;;;;;19.80;85.40;;;;;;4998814;28;20430;-86
2023/08/25 03:17:18;;;;;;;;;;;19.80;85.10;;;;;;4996221;28;19921;-86
2023/08/25 03:19:44;;;;;;;;;;;19.70;85.10;;;;;;4996414;28;20383;-86
2023/08/25 03:22:09;;;;;;;;;;;19.80;85.30;;;;;;4996806;28;20009;-86
2023/08/25 03:24:35;;;;;;;;;;;19.70;85.20;;;;;;4996480;28;20327;-86
2023/08/25 03:27:00;;;;;;;;;;;19.70;85.20;;;;;;4996851;28;19909;-86
2023/08/25 03:29:25;;;;;;;;;;;19.60;85.00;;;;;;4995769;28;19925;-86
2023/08/25 03:31:51;;;;;;;;;;;19.60;85.00;;;;;;4993844;28;19983;-86
2023/08/25 03:34:17;;;;;;;;;;;19.60;84.80;;;;;;4981602;28;19917;-86
2023/08/25 03:36:42;;;;;;;;;;;19.50;85.50;;;;;;4991857;28;19993;-86
2023/08/25 03:39:07;;;;;;;;;;;19.40;85.90;;;;;;4986624;28;20053;-86
2023/08/25 03:41:34;;;;;;;;;;;19.40;86.10;;;;;;4991940;28;20371;-86
2023/08/25 03:43:59;;;;;;;;;;;19.40;86.30;;;;;;4994076;28;19910;-86
2023/08/25 03:46:25;;;;;;;;;;;19.30;86.40;;;;;;4994120;28;19914;-86
2023/08/25 03:48:53;;;;;;;;;;;19.30;86.50;;;;;;4995366;28;19914;-86
2023/08/25 03:51:19;;;;;;;;;;;19.30;86.40;;;;;;4995306;28;19910;-86
2023/08/25 03:53:50;;;;;;;;;;;19.40;86.00;;;;;;4993958;28;19937;-86
2023/08/25 03:56:15;;;;;;;;;;;19.30;85.70;;;;;;4992515;28;19914;-85
2023/08/25 03:58:41;;;;;;;;;;;19.30;85.60;;;;;;4994095;28;19914;-86
2023/08/25 04:01:07;;;;;;;;;;;19.30;86.10;;;;;;4991233;28;20000;-86
2023/08/25 04:03:33;;;;;;;;;;;19.30;86.00;;;;;;4994041;28;19910;-86
2023/08/25 04:05:58;;;;;;;;;;;19.30;86.00;;;;;;4992140;28;20290;-86
2023/08/25 04:08:25;;;;;;;;;;;19.20;86.20;;;;;;4985035;28;19918;-86
2023/08/25 04:10:51;;;;;;;;;;;19.20;86.10;;;;;;4989808;28;19996;-86
2023/08/25 04:13:16;;;;;;;;;;;19.10;86.50;;;;;;4988444;28;20017;-86
2023/08/25 04:15:41;;;;;;;;;;;19.10;86.60;;;;;;4989823;28;19937;-86
2023/08/25 04:18:07;;;;;;;;;;;19.10;86.60;;;;;;4985441;28;19914;-86
2023/08/25 04:20:32;;;;;;;;;;;19.00;86.70;;;;;;4994711;28;19917;-86
2023/08/25 04:22:59;;;;;;;;;;;19.00;86.80;;;;;;5004728;28;19910;-86
2023/08/25 04:25:27;;;;;;;;;;;19.00;86.70;;;;;;4992440;28;20298;-86
2023/08/25 04:27:52;;;;;;;;;;;19.10;86.70;;;;;;4993565;28;19917;-86
2023/08/25 04:30:22;;;;;;;;;;;19.00;86.70;;;;;;4992962;28;20060;-86
2023/08/25 04:32:51;;;;;;;;;;;19.00;86.60;;;;;;4988251;28;19920;-85
2023/08/25 04:35:17;;;;;;;;;;;18.90;86.80;;;;;;4988731;28;20398;-86
2023/08/25 04:37:47;;;;;;;;;;;19.00;86.80;;;;;;4991223;28;19909;-85
2023/08/25 04:40:16;;;;;;;;;;;19.00;86.90;;;;;;4989206;28;20373;-85
2023/08/25 04:42:42;;;;;;;;;;;19.00;87.10;;;;;;4993287;28;19933;-86
2023/08/25 04:45:11;;;;;;;;;;;18.90;87.00;;;;;;4993688;28;20376;-86
2023/08/25 04:47:36;;;;;;;;;;;18.90;87.10;;;;;;4989358;28;19917;-85
2023/08/25 04:50:02;;;;;;;;;;;18.90;87.00;;;;;;4986937;28;19961;-87
2023/08/25 04:52:28;;;;;;;;;;;18.90;87.10;;;;;;4984705;28;19918;-86
2023/08/25 04:54:54;;;;;;;;;;;18.80;86.90;;;;;;4992362;28;19909;-85
2023/08/25 04:57:19;;;;;;;;;;;18.90;86.90;;;;;;4991638;28;20303;-85
2023/08/25 04:59:44;;;;;;;;;;;19.00;86.70;;;;;;4991242;28;19922;-86
2023/08/25 05:02:10;;;;;;;;;;;19.10;86.30;;;;;;4993498;28;19961;-85
2023/08/25 05:04:35;;;;;;;;;;;19.00;86.90;;;;;;4994336;28;19940;-86
2023/08/25 05:07:01;;;;;;;;;;;19.00;86.90;;;;;;4991351;28;19956;-87
2023/08/25 05:09:26;;;;;;;;;;;19.00;86.30;;;;;;4989447;28;19917;-87
2023/08/25 05:11:52;;;;;;;;;;;19.00;86.40;;;;;;4992920;28;19921;-85
2023/08/25 05:14:17;;;;;;;;;;;19.00;86.90;;;;;;4989780;28;20404;-86
2023/08/25 05:16:43;;;;;;;;;;;19.00;86.90;;;;;;4989590;28;19914;-86
2023/08/25 05:19:09;;;;;;;;;;;19.00;87.00;;;;;;4992483;28;19968;-86
2023/08/25 05:21:35;;;;;;;;;;;19.10;86.90;;;;;;4993577;28;19924;-85
2023/08/25 05:24:14;;;;;;;;;;;19.10;86.90;;;;;;4991604;28;20294;-87
2023/08/25 05:26:40;;;;;;;;;;;19.10;87.10;;;;;;4976262;28;19925;-85
2023/08/25 05:29:05;;;;;;;;;;;19.20;87.00;;;;;;4989392;28;19918;-86
2023/08/25 05:31:30;;;;;;;;;;;19.20;87.00;;;;;;4988294;28;20012;-85
2023/08/25 05:33:56;;;;;;;;;;;19.20;87.00;;;;;;4989435;28;19968;-86
2023/08/25 05:36:21;;;;;;;;;;;19.20;87.20;;;;;;4997193;28;19921;-86
2023/08/25 05:38:47;;;;;;;;;;;19.20;87.20;;;;;;4983579;28;19922;-86
2023/08/25 05:41:12;;;;;;;;;;;19.30;87.20;;;;;;4985672;28;19937;-86
2023/08/25 05:43:38;;;;;;;;;;;19.30;87.20;;;;;;4982983;28;20315;-87
2023/08/25 05:46:03;;;;;;;;;;;19.30;87.30;;;;;;4987382;28;20064;-88
2023/08/25 05:48:28;;;;;;;;;;;19.30;87.10;;;;;;4989976;28;19925;-87
2023/08/25 05:50:54;;;;;;;;;;;19.30;87.10;;;;;;4978664;28;19915;-88
2023/08/25 05:53:19;;;;;;;;;;;19.30;87.50;;;;;;4984624;28;19914;-87
2023/08/25 05:55:46;;;;;;;;;;;19.30;87.50;;;;;;4992519;28;19980;-89
2023/08/25 05:58:12;;;;;;;;;;;19.40;87.60;;;;;;4989790;28;19942;-89
2023/08/25 06:00:38;;;;;;;;;;;19.50;87.50;;;;;;5005249;28;19921;-89
2023/08/25 06:03:04;;;;;;;;;;;19.50;87.50;;;;;;4999590;28;19921;-89
2023/08/25 06:05:29;;;;;;;;;;;19.50;87.50;;;;;;4996552;28;20007;-87
2023/08/25 06:07:55;;;;;;;;;;;19.60;87.40;;;;;;4995237;28;19922;-89
2023/08/25 06:10:20;;;;;;;;;;;19.70;87.40;;;;;;4988173;28;19921;-89
2023/08/25 06:12:46;;;;;;;;;;;19.70;87.50;;;;;;4991772;28;19974;-89
2023/08/25 06:15:12;;;;;;;;;;;19.80;87.60;;;;;;4997677;28;19921;-90
2023/08/25 06:17:37;;;;;;;;;;;19.80;87.60;;;;;;4981213;28;20013;-89
2023/08/25 06:20:03;;;;;;;;;;;19.80;87.70;;;;;;4984654;28;19909;-89
2023/08/25 06:22:28;;;;;;;;;;;19.90;87.50;;;;;;4994601;28;19956;-87
2023/08/25 06:24:54;;;;;;;;;;;19.90;87.20;;;;;;4993769;28;19917;-89
2023/08/25 06:27:19;;;;;;;;;;;19.90;87.20;;;;;;4993778;28;19930;-88
2023/08/25 06:29:45;;;;;;;;;;;20.00;87.20;;;;;;4990009;28;20698;-88
2023/08/25 06:32:13;;;;;;;;;;;20.00;87.10;;;;;;4994026;28;19969;-87
2023/08/25 06:34:39;;;;;;;;;;;20.10;87.10;;;;;;4989992;28;19985;-89
2023/08/25 06:37:20;;;;;;;;;;;20.10;87.00;;;;;;4987178;28;19945;-89
2023/08/25 06:39:47;;;;;;;;;;;20.20;87.00;;;;;;4994628;28;19910;-88
2023/08/25 06:42:13;;;;;;;;;;;20.20;87.00;;;;;;4995271;28;19968;-88
2023/08/25 06:44:40;;;;;;;;;;;20.30;86.90;;;;;;4978633;28;19910;-90
2023/08/25 06:47:06;;;;;;;;;;;20.30;86.30;;;;;;4991533;28;19976;-89
2023/08/25 06:49:31;;;;;;;;;;;20.40;86.50;;;;;;4993463;28;19914;-89
2023/08/25 06:51:56;;;;;;;;;;;20.40;86.50;;;;;;4982986;28;19909;-90
2023/08/25 06:54:24;;;;;;;;;;;20.40;86.70;;;;;;4977251;28;19914;-90
2023/08/25 06:56:50;;;;;;;;;;;20.40;86.80;;;;;;4990378;28;19914;-90
2023/08/25 06:59:16;;;;;;;;;;;20.50;86.00;;;;;;4990000;28;19944;-90
2023/08/25 07:01:41;;;;;;;;;;;20.50;86.00;;;;;;4986650;28;19910;-90
2023/08/25 07:04:07;;;;;;;;;;;20.60;86.40;;;;;;4992953;28;19910;-91
2023/08/25 07:06:32;;;;;;;;;;;20.70;85.50;;;;;;4995844;28;20291;-92
2023/08/25 07:08:57;;;;;;;;;;;20.90;85.40;;;;;;4996259;28;20045;-90
2023/08/25 07:11:26;;;;;;;;;;;21.00;84.50;;;;;;4984281;28;19910;-90
2023/08/25 07:13:52;;;;;;;;;;;21.40;82.20;;;;;;4988884;28;20346;-90
2023/08/25 07:16:17;;;;;;;;;;;21.60;81.00;;;;;;5000566;28;19921;-90
2023/08/25 07:18:42;;;;;;;;;;;21.60;81.70;;;;;;4998569;28;20392;-88
2023/08/25 07:21:08;;;;;;;;;;;21.50;82.50;;;;;;4986717;28;19918;-87
2023/08/25 07:23:33;;;;;;;;;;;21.40;82.80;;;;;;4977347;28;19949;-89
2023/08/25 07:25:59;;;;;;;;;;;21.40;82.80;;;;;;4995175;28;19918;-88
2023/08/25 07:28:24;;;;;;;;;;;21.40;83.00;;;;;;4996598;28;19914;-88
2023/08/25 07:30:50;;;;;;;;;;;21.30;83.70;;;;;;4998441;28;19917;-90
2023/08/25 07:33:15;;;;;;;;;;;21.40;83.90;;;;;;5009486;28;19914;-89
2023/08/25 07:35:41;;;;;;;;;;;21.50;84.30;;;;;;4997773;28;19925;-88
2023/08/25 07:38:08;;;;;;;;;;;21.60;83.30;;;;;;4994965;28;19910;-89
2023/08/25 07:40:34;;;;;;;;;;;21.60;83.40;;;;;;4989915;28;19911;-89
2023/08/25 07:43:03;;;;;;;;;;;21.60;83.60;;;;;;4985179;28;19921;-88
2023/08/25 07:45:29;;;;;;;;;;;21.50;83.70;;;;;;4995467;28;19960;-89
2023/08/25 07:48:01;;;;;;;;;;;21.50;83.40;;;;;;4994498;28;19914;-89
2023/08/25 07:50:30;;;;;;;;;;;21.30;83.20;;;;;;4989668;28;20430;-88
2023/08/25 07:52:56;;;;;;;;;;;21.20;83.50;;;;;;4995007;28;19910;-89
2023/08/25 07:55:22;;;;;;;;;;;21.10;83.90;;;;;;4995709;28;19925;-88
2023/08/25 07:57:47;;;;;;;;;;;21.10;84.60;;;;;;4995720;28;20367;-88
2023/08/25 08:00:15;;;;;;;;;;;21.20;84.80;;;;;;4988970;28;19918;-88
2023/08/25 08:02:42;;;;;;;;;;;21.10;85.00;;;;;;4993094;28;20275;-88
2023/08/25 08:05:07;;;;;;;;;;;21.10;85.30;;;;;;4995073;28;19924;-88
2023/08/25 08:07:34;;;;;;;;;;;21.00;85.30;;;;;;4994463;28;19909;-89
2023/08/25 08:10:02;;;;;;;;;;;20.90;86.00;;;;;;4978239;28;19920;-88
2023/08/25 08:12:28;;;;;;;;;;;20.90;85.80;;;;;;4978115;28;20371;-88
2023/08/25 08:14:53;;;;;;;;;;;20.80;86.10;;;;;;5010310;28;19968;-89
2023/08/25 08:17:19;;;;;;;;;;;20.70;86.80;;;;;;4994579;28;19986;-90
2023/08/25 08:19:45;;;;;;;;;;;20.60;87.30;;;;;;4999547;28;20426;-90
2023/08/25 08:22:10;;;;;;;;;;;20.60;87.50;;;;;;4994469;28;19914;-91
2023/08/25 08:24:36;;;;;;;;;;;20.60;88.20;;;;;;5008647;23;19910;-84
2023/08/25 08:27:02;;;;;;;;;;;20.50;88.40;;;;;;5007166;28;19925;-84
2023/08/25 08:29:28;;;;;;;;;;;20.50;88.40;;;;;;5016032;28;19918;-86
2023/08/25 08:31:55;;;;;;;;;;;20.50;88.70;;;;;;5018052;28;19973;-86
2023/08/25 08:34:21;;;;;;;;;;;20.40;88.80;;;;;;5031135;28;19921;-85
2023/08/25 08:36:47;;;;;;;;;;;20.40;89.00;;;;;;5012492;28;19922;-85
2023/08/25 08:39:14;;;;;;;;;;;20.40;89.50;;;;;;5006522;28;19981;-85
2023/08/25 08:41:40;;;;;;;;;;;20.30;89.60;;;;;;4996952;28;20296;-85
2023/08/25 08:44:08;;;;;;;;;;;20.20;89.80;;;;;;4997331;28;19937;-85
2023/08/25 08:46:34;;;;;;;;;;;20.10;90.30;;;;;;5002608;28;20033;-85
2023/08/25 08:49:00;;;;;;;;;;;20.10;90.50;;;;;;5001777;28;20437;-85
2023/08/25 08:51:26;;;;;;;;;;;20.20;90.50;;;;;;4994361;28;19992;-86
2023/08/25 08:53:52;;;;;;;;;;;20.10;90.30;;;;;;5002819;28;19918;-86
2023/08/25 08:56:18;;;;;;;;;;;20.10;90.80;;;;;;4998007;28;19914;-87
2023/08/25 08:58:43;;;;;;;;;;;20.10;90.60;;;;;;4998583;28;20438;-87
2023/08/25 09:01:10;;;;;;;;;;;20.10;90.60;;;;;;4992383;28;19933;-87
2023/08/25 09:03:37;;;;;;;;;;;20.10;90.80;;;;;;5005316;28;20376;-88
2023/08/25 09:06:03;;;;;;;;;;;20.20;90.30;;;;;;5000080;28;19910;-86
2023/08/25 09:08:29;;;;;;;;;;;20.20;90.00;;;;;;4994797;28;20013;-86
2023/08/25 09:10:58;;;;;;;;;;;20.20;90.40;;;;;;5008197;28;20316;-85
2023/08/25 09:13:23;;;;;;;;;;;20.20;90.40;;;;;;4998845;28;20430;-86
2023/08/25 09:15:51;;;;;;;;;;;20.20;90.50;;;;;;4998513;28;19952;-86
2023/08/25 09:18:16;;;;;;;;;;;20.30;90.20;;;;;;5005791;28;19917;-86
2023/08/25 09:20:42;;;;;;;;;;;20.20;90.70;;;;;;5002775;28;19909;-86
2023/08/25 09:23:08;;;;;;;;;;;20.30;90.80;;;;;;5002373;28;19956;-86
2023/08/25 09:25:33;;;;;;;;;;;20.40;90.60;;;;;;5008262;28;20019;-86
2023/08/25 09:28:00;;;;;;;;;;;20.50;89.80;;;;;;5003488;28;19913;-86
2023/08/25 09:30:41;;;;;;;;;;;20.50;89.80;;;;;;5000725;28;19917;-86
2023/08/25 09:33:08;;;;;;;;;;;20.60;89.80;;;;;;5001802;28;20291;-86
2023/08/25 09:35:33;;;;;;;;;;;20.70;89.80;;;;;;5008071;28;19914;-86
2023/08/25 09:37:59;;;;;;;;;;;20.70;89.90;;;;;;5002974;28;19909;-85
2023/08/25 09:40:25;;;;;;;;;;;20.70;89.70;;;;;;5001316;28;20383;-85
2023/08/25 09:42:56;;;;;;;;;;;20.70;89.50;;;;;;5010877;28;19916;-85
2023/08/25 09:45:21;;;;;;;;;;;20.70;89.60;;;;;;5013032;28;20402;-85
2023/08/25 09:47:46;;;;;;;;;;;20.80;89.60;;;;;;5009968;28;19914;-85
2023/08/25 09:50:13;;;;;;;;;;;20.80;89.10;;;;;;5001171;28;20302;-84
2023/08/25 09:52:40;;;;;;;;;;;20.90;89.20;;;;;;5012349;28;19960;-83
2023/08/25 09:55:06;;;;;;;;;;;21.00;88.80;;;;;;5008556;28;20299;-85
2023/08/25 09:57:32;;;;;;;;;;;20.80;89.00;;;;;;4994848;28;19913;-86
2023/08/25 09:59:58;;;;;;;;;;;20.70;89.50;;;;;;4992107;28;19914;-87
2023/08/25 10:02:24;;;;;;;;;;;20.60;89.90;;;;;;4991981;28;19914;-86
2023/08/25 10:04:50;;;;;;;;;;;20.50;90.30;;;;;;5001140;28;19976;-88
2023/08/25 10:07:16;;;;;;;;;;;20.40;90.80;;;;;;4993213;28;19937;-81
2023/08/25 10:09:41;;;;;;;;;;;20.50;91.10;;;;;;5000066;28;19910;-89
2023/08/25 10:12:08;;;;;;;;;;;20.50;91.10;;;;;;5009282;28;19937;-89
2023/08/25 10:14:36;;;;;;;;;;;20.40;91.00;;;;;;5021243;28;19920;-87
2023/08/25 10:17:02;;;;;;;;;;;20.50;90.40;;;;;;5009838;28;19996;-87
2023/08/25 10:19:28;;;;;;;;;;;20.50;90.00;;;;;;4999576;28;19915;-87
2023/08/25 10:21:55;;;;;;;;;;;20.20;90.70;;;;;;5004788;28;19917;-86
2023/08/25 10:24:21;;;;;;;;;;;20.20;91.20;;;;;;5007302;28;19925;-86
2023/08/25 10:26:47;;;;;;;;;;;20.20;90.80;;;;;;4997094;28;20593;-85
2023/08/25 10:29:15;;;;;;;;;;;20.40;90.50;;;;;;4995842;28;19949;-84
2023/08/25 10:31:47;;;;;;;;;;;20.30;90.30;;;;;;4993962;28;20902;-84
2023/08/25 10:34:29;;;;;;;;;;;20.20;90.80;;;;;;4991032;28;19928;-83
2023/08/25 10:37:03;;;;;;;;;;;20.20;91.00;;;;;;4988376;28;19918;-85
2023/08/25 10:39:48;;;;;;;;;;;20.10;91.30;;;;;;5013483;28;19929;-85
2023/08/25 10:42:17;;;;;;;;;;;20.00;91.20;;;;;;5000315;28;19937;-85
2023/08/25 10:44:43;;;;;;;;;;;19.90;91.10;;;;;;5000087;28;19914;-85
2023/08/25 10:47:08;;;;;;;;;;;19.90;91.30;;;;;;5000350;28;20016;-85
2023/08/25 10:49:40;;;;;;;;;;;19.80;91.40;;;;;;5002023;28;20380;-84
2023/08/25 10:52:16;;;;;;;;;;;19.90;91.70;;;;;;5001439;28;19914;-84
2023/08/25 10:54:41;;;;;;;;;;;19.80;91.60;;;;;;4993400;28;19920;-84
2023/08/25 10:57:20;;;;;;;;;;;19.70;91.80;;;;;;4992962;28;20009;-85
2023/08/25 10:59:49;;;;;;;;;;;19.70;91.60;;;;;;4991056;28;19925;-87
2023/08/25 11:02:32;;;;;;;;;;;19.70;91.90;;;;;;4980372;28;19922;-89
2023/08/25 11:05:17;;;;;;;;;;;19.80;92.10;;;;;;4987692;28;20090;-85
2023/08/25 11:07:43;;;;;;;;;;;19.80;92.20;;;;;;4988887;28;20367;-84
2023/08/25 11:10:12;;;;;;;;;;;19.80;91.90;;;;;;4990227;28;19975;-85
2023/08/25 11:12:38;;;;;;;;;;;19.90;91.00;;;;;;5007523;28;19914;-85
2023/08/25 11:15:07;;;;;;;;;;;19.70;91.20;;;;;;4991238;28;20087;-86
2023/08/25 11:17:32;;;;;;;;;;;19.70;91.30;;;;;;4987093;28;19922;-85
2023/08/25 11:19:58;;;;;;;;;;;19.60;91.50;;;;;;4988916;28;19913;-86
2023/08/25 11:22:23;;;;;;;;;;;19.60;91.90;;;;;;4994666;28;19948;-89
2023/08/25 11:24:49;;;;;;;;;;;19.60;92.00;;;;;;4992634;28;19915;-87
2023/08/25 11:27:16;;;;;;;;;;;19.60;91.80;;;;;;4990575;28;21385;-87
2023/08/25 11:29:45;;;;;;;;;;;19.50;91.80;;;;;;4989157;28;20372;-86
2023/08/25 11:32:14;;;;;;;;;;;19.50;92.20;;;;;;4989425;28;19922;-83
2023/08/25 11:34:39;;;;;;;;;;;19.60;91.80;;;;;;4988823;28;19914;-83
2023/08/25 11:37:05;;;;;;;;;;;19.50;91.60;;;;;;4992744;28;19913;-84
2023/08/25 11:39:31;;;;;;;;;;;19.50;91.30;;;;;;4989661;28;19914;-82
2023/08/25 11:41:57;;;;;;;;;;;19.50;91.60;;;;;;4987774;28;19918;-82
2023/08/25 11:44:23;;;;;;;;;;;19.50;91.50;;;;;;4993049;28;19913;-84
2023/08/25 11:46:48;;;;;;;;;;;19.60;91.30;;;;;;4989960;28;19921;-83
2023/08/25 11:49:14;;;;;;;;;;;19.60;91.40;;;;;;4985407;28;19918;-83
2023/08/25 11:51:39;;;;;;;;;;;19.70;91.30;;;;;;4993794;28;19940;-84
2023/08/25 11:54:05;;;;;;;;;;;19.80;91.10;;;;;;4996700;28;19914;-85
2023/08/25 11:56:31;;;;;;;;;;;19.90;90.30;;;;;;4998365;28;19910;-87
2023/08/25 11:59:00;;;;;;;;;;;19.90;89.70;;;;;;4989314;28;19986;-87
2023/08/25 12:01:32;;;;;;;;;;;20.10;89.40;;;;;;4995195;28;19945;-88
2023/08/25 12:03:59;;;;;;;;;;;20.20;88.60;;;;;;4991034;28;19918;-85
2023/08/25 12:06:25;;;;;;;;;;;20.10;89.50;;;;;;5019704;28;19914;-85
2023/08/25 12:08:53;;;;;;;;;;;20.10;90.00;;;;;;4988994;28;19933;-87
2023/08/25 12:11:19;;;;;;;;;;;20.10;90.30;;;;;;4982867;28;20273;-89
2023/08/25 12:13:46;;;;;;;;;;;20.20;90.40;;;;;;4985997;28;19980;-87
2023/08/25 12:16:13;;;;;;;;;;;20.60;90.40;;;;;;4992380;28;19914;-86
2023/08/25 12:18:40;;;;;;;;;;;20.80;90.40;;;;;;4990360;28;19917;-87
2023/08/25 12:21:08;;;;;;;;;;;20.90;90.00;;;;;;4988769;28;20398;-88
2023/08/25 12:23:38;;;;;;;;;;;21.00;90.00;;;;;;4993317;28;20409;-87
2023/08/25 12:26:32;;;;;;;;;;;21.20;89.10;;;;;;5007097;28;19906;-88
2023/08/25 12:28:58;;;;;;;;;;;21.20;89.40;;;;;;4991603;28;20362;-87
2023/08/25 12:31:29;;;;;;;;;;;21.40;88.70;;;;;;4997173;28;19914;-90
2023/08/25 12:33:55;;;;;;;;;;;21.40;88.10;;;;;;4991143;28;19922;-87
2023/08/25 12:36:20;;;;;;;;;;;21.40;88.20;;;;;;4997354;28;19966;-84
2023/08/25 12:38:46;;;;;;;;;;;21.50;88.30;;;;;;5004551;28;19945;-87
2023/08/25 12:41:11;;;;;;;;;;;21.60;87.90;;;;;;4996513;28;19910;-87
2023/08/25 12:43:37;;;;;;;;;;;21.60;87.70;;;;;;4997789;28;19965;-86
2023/08/25 12:46:03;;;;;;;;;;;21.60;87.10;;;;;;4998890;28;19910;-86
2023/08/25 12:48:28;;;;;;;;;;;21.60;87.10;;;;;;4996383;28;19952;-86
2023/08/25 12:50:54;;;;;;;;;;;21.60;87.30;;;;;;5001138;28;20319;-86
2023/08/25 12:53:20;;;;;;;;;;;21.70;87.30;;;;;;4998513;28;20293;-86
2023/08/25 12:55:45;;;;;;;;;;;21.80;87.10;;;;;;4999529;28;19917;-86
2023/08/25 12:58:11;;;;;;;;;;;21.70;87.20;;;;;;4998683;28;19917;-87
2023/08/25 13:00:36;;;;;;;;;;;21.80;87.40;;;;;;5000125;28;19956;-86
2023/08/25 13:03:02;;;;;;;;;;;21.90;87.60;;;;;;4996071;28;19949;-86
2023/08/25 13:05:28;;;;;;;;;;;22.00;87.50;;;;;;4995741;28;19974;-86
2023/08/25 13:07:53;;;;;;;;;;;22.00;87.40;;;;;;4994808;28;19953;-86
2023/08/25 13:10:19;;;;;;;;;;;22.00;87.30;;;;;;4995213;28;19960;-86
2023/08/25 13:12:44;;;;;;;;;;;21.90;87.20;;;;;;4995249;28;19916;-86
2023/08/25 13:15:11;;;;;;;;;;;22.00;87.60;;;;;;4999359;28;19957;-86
2023/08/25 13:17:37;;;;;;;;;;;21.90;87.60;;;;;;5000328;28;19910;-86
2023/08/25 13:20:03;;;;;;;;;;;22.00;87.20;;;;;;5002239;28;19909;-87
2023/08/25 13:22:28;;;;;;;;;;;22.10;86.70;;;;;;5017988;28;19921;-86
2023/08/25 13:24:53;;;;;;;;;;;22.00;87.40;;;;;;5017870;28;19971;-86
2023/08/25 13:27:19;;;;;;;;;;;22.00;87.50;;;;;;4998810;28;19909;-87
2023/08/25 13:29:44;;;;;;;;;;;22.10;87.90;;;;;;4997046;28;19914;-86
2023/08/25 13:32:10;;;;;;;;;;;22.20;87.50;;;;;;4997385;28;19920;-87
2023/08/25 13:34:35;;;;;;;;;;;22.20;86.80;;;;;;4998504;28;19916;-87
2023/08/25 13:37:03;;;;;;;;;;;22.20;86.80;;;;;;5007112;28;19909;-87
2023/08/25 13:39:29;;;;;;;;;;;22.20;87.20;;;;;;5005984;28;20372;-87
2023/08/25 13:41:54;;;;;;;;;;;22.20;87.50;;;;;;4998924;28;19920;-87
2023/08/25 13:44:19;;;;;;;;;;;22.30;86.70;;;;;;4997077;28;19937;-87
2023/08/25 13:46:45;;;;;;;;;;;22.40;86.50;;;;;;4998898;28;19910;-87
2023/08/25 13:49:10;;;;;;;;;;;22.20;86.00;;;;;;4997186;28;20012;-87
2023/08/25 13:51:36;;;;;;;;;;;22.20;87.10;;;;;;4998382;28;19914;-87
2023/08/25 13:54:02;;;;;;;;;;;22.20;87.60;;;;;;4997630;28;19909;-87
2023/08/25 13:56:27;;;;;;;;;;;22.10;88.20;;;;;;4997894;28;20372;-87
2023/08/25 13:58:53;;;;;;;;;;;22.10;88.60;;;;;;4996382;28;20063;-86
2023/08/25 14:01:19;;;;;;;;;;;22.10;88.50;;;;;;4995556;28;19909;-86
2023/08/25 14:03:48;;;;;;;;;;;22.00;88.90;;;;;;4999314;28;20005;-86
2023/08/25 14:06:14;;;;;;;;;;;22.00;89.10;;;;;;4996644;28;19918;-87
2023/08/25 14:08:40;;;;;;;;;;;22.00;89.60;;;;;;4995569;28;20249;-87
2023/08/25 14:11:06;;;;;;;;;;;22.10;89.00;;;;;;4996358;28;20299;-86
2023/08/25 14:13:31;;;;;;;;;;;22.20;88.90;;;;;;4984668;28;19917;-86